Time;durP1;ratioP1;P1;durP2;ratioP2;P2;SDS_P1;SDS_P2;PMS_P1;PMS_P2;Temp;Humidity;BMP_temperature;BMP_pressure;BME280_temperature;BME280_humidity;BME280_pressure;Samples;Min_cycle;Max_cycle;Signal;HPM_P1;HPM_P2
2023/11/14 00:04:43;;;;;;;26.83;4.63;;;;;10.60;99912.00;;;;10318069;28;20288;-76
2023/11/14 00:09:45;;;;;;;23.50;6.33;;;;;10.60;99911.00;;;;10323509;28;20294;-76
2023/11/14 00:14:49;;;;;;;33.43;5.90;;;;;10.50;99919.00;;;;10307063;28;20867;-72
2023/11/14 00:19:50;;;;;;;28.20;5.43;;;;;10.60;99932.00;;;;10332482;28;20227;-72
2023/11/14 00:24:52;;;;;;;23.07;4.63;;;;;10.60;99931.00;;;;10306431;28;20224;-72
2023/11/14 00:29:53;;;;;;;22.73;4.70;;;;;10.50;99907.00;;;;10317725;28;20559;-72
2023/11/14 00:34:54;;;;;;;32.97;5.70;;;;;10.50;99917.00;;;;10309706;28;20301;-73
2023/11/14 00:39:56;;;;;;;33.80;5.10;;;;;10.50;99913.00;;;;10314272;28;20235;-72
2023/11/14 00:44:57;;;;;;;28.37;5.90;;;;;10.60;99906.00;;;;10310516;28;20222;-73
2023/11/14 00:49:58;;;;;;;21.30;5.90;;;;;10.50;99904.00;;;;10307241;28;20731;-72
2023/11/14 00:54:59;;;;;;;36.10;5.23;;;;;10.60;99910.00;;;;10312834;28;20255;-72
2023/11/14 01:00:01;;;;;;;27.77;4.93;;;;;10.60;99908.00;;;;10315604;28;20231;-72
2023/11/14 01:05:02;;;;;;;33.23;5.57;;;;;10.70;99908.00;;;;10308431;28;20924;-72
2023/11/14 01:10:04;;;;;;;30.67;5.03;;;;;10.70;99901.00;;;;10309772;28;20769;-72
2023/11/14 01:15:06;;;;;;;21.07;4.93;;;;;10.80;99911.00;;;;10305098;28;20872;-72
2023/11/14 01:20:10;;;;;;;37.73;5.27;;;;;10.80;99932.00;;;;10330117;28;20215;-72
2023/11/14 01:25:11;;;;;;;25.93;5.07;;;;;10.80;99933.00;;;;10312270;28;20228;-71
2023/11/14 01:30:12;;;;;;;32.60;6.57;;;;;10.80;99926.00;;;;10294299;28;20314;-71
2023/11/14 01:35:14;;;;;;;29.47;6.23;;;;;10.70;99943.00;;;;10308726;28;20299;-71
2023/11/14 01:40:15;;;;;;;27.57;4.97;;;;;10.80;99965.00;;;;10309267;28;20220;-72
2023/11/14 01:45:16;;;;;;;34.77;5.87;;;;;10.80;99965.00;;;;10308664;28;20236;-71
2023/11/14 01:50:19;;;;;;;27.30;6.17;;;;;10.80;99967.00;;;;10310854;28;20236;-71
2023/11/14 01:55:22;;;;;;;21.40;5.10;;;;;10.80;99970.00;;;;10332962;28;20292;-71
2023/11/14 02:00:24;;;;;;;33.73;6.23;;;;;10.70;99980.00;;;;10334557;28;20943;-71
2023/11/14 02:05:27;;;;;;;24.07;5.43;;;;;10.60;99995.00;;;;10328063;28;20225;-71
2023/11/14 02:10:29;;;;;;;31.53;6.23;;;;;10.60;99976.00;;;;10317975;28;20245;-71
2023/11/14 02:15:30;;;;;;;27.47;5.23;;;;;10.50;99992.00;;;;10312270;28;20250;-71
2023/11/14 02:20:31;;;;;;;22.07;4.87;;;;;10.50;100012.00;;;;10318422;28;20231;-71
2023/11/14 02:25:33;;;;;;;26.67;5.10;;;;;10.50;100016.00;;;;10308730;28;20238;-71
2023/11/14 02:30:37;;;;;;;28.77;5.10;;;;;10.50;100038.00;;;;10323028;28;20231;-71
2023/11/14 02:35:39;;;;;;;23.90;5.07;;;;;10.50;100036.00;;;;10314125;28;20231;-76
2023/11/14 02:40:40;;;;;;;22.27;4.60;;;;;10.50;100041.00;;;;10314722;28;20247;-77
2023/11/14 02:45:42;;;;;;;32.67;5.27;;;;;10.40;100035.00;;;;10325090;28;20216;-76
2023/11/14 02:50:56;;;;;;;27.80;5.17;;;;;10.30;100021.00;;;;10322989;28;20232;-76
2023/11/14 02:55:57;;;;;;;25.30;5.20;;;;;10.30;100020.00;;;;10323639;28;20332;-76
2023/11/14 03:00:59;;;;;;;30.13;4.77;;;;;10.40;100032.00;;;;10313382;28;20224;-76
2023/11/14 03:06:03;;;;;;;29.60;4.77;;;;;10.50;100017.00;;;;10312467;28;20212;-76
2023/11/14 03:11:04;;;;;;;33.57;5.83;;;;;10.50;100024.00;;;;10321537;28;20539;-76
2023/11/14 03:16:12;;;;;;;27.73;4.43;;;;;10.40;100039.00;;;;10314045;28;20216;-76
2023/11/14 03:21:15;;;;;;;32.03;5.73;;;;;10.40;100043.00;;;;10320461;28;20234;-75
2023/11/14 03:26:16;;;;;;;28.07;4.87;;;;;10.40;100039.00;;;;10316889;28;20855;-76
2023/11/14 03:31:24;;;;;;;27.17;4.60;;;;;10.50;100043.00;;;;10320956;28;20257;-75
2023/11/14 03:36:25;;;;;;;18.30;4.67;;;;;10.50;100031.00;;;;10314898;28;20220;-76
2023/11/14 03:41:28;;;;;;;26.37;5.37;;;;;10.50;100022.00;;;;10313941;28;20587;-76
2023/11/14 03:46:29;;;;;;;17.80;4.10;;;;;10.50;100037.00;;;;10336290;28;20220;-76
2023/11/14 03:51:30;;;;;;;27.77;4.90;;;;;10.40;100036.00;;;;10318198;28;20311;-75
2023/11/14 03:56:31;;;;;;;25.90;5.10;;;;;10.20;100038.00;;;;10331476;28;20220;-76
2023/11/14 04:01:32;;;;;;;34.30;5.20;;;;;10.10;100013.00;;;;10316219;28;20267;-75
2023/11/14 04:06:33;;;;;;;29.73;4.73;;;;;10.10;100037.00;;;;10309142;28;20967;-75
2023/11/14 04:11:34;;;;;;;26.83;5.20;;;;;10.00;100042.00;;;;10296572;28;20220;-76
2023/11/14 04:16:35;;;;;;;36.23;5.50;;;;;9.90;100030.00;;;;10312210;28;20227;-76
2023/11/14 04:21:37;;;;;;;24.77;4.70;;;;;9.90;100028.00;;;;10313596;28;20247;-75
2023/11/14 04:26:42;;;;;;;23.13;5.27;;;;;9.80;100009.00;;;;10305307;28;20314;-75
2023/11/14 04:31:43;;;;;;;23.20;4.60;;;;;9.90;100014.00;;;;10326324;28;20219;-75
2023/11/14 04:36:44;;;;;;;27.00;4.50;;;;;9.90;100027.00;;;;10298330;28;20253;-76
2023/11/14 04:41:46;;;;;;;26.80;4.70;;;;;10.00;100037.00;;;;10310906;28;20313;-76
2023/11/14 04:46:47;;;;;;;27.03;5.43;;;;;9.90;100061.00;;;;10311075;28;20294;-76
2023/11/14 04:51:48;;;;;;;26.53;4.37;;;;;9.90;100076.00;;;;10317082;28;20220;-75
2023/11/14 04:56:49;;;;;;;20.03;5.63;;;;;10.00;100087.00;;;;10297797;28;20716;-72
2023/11/14 05:01:50;;;;;;;41.00;6.27;;;;;10.10;100074.00;;;;10306127;28;20302;-71
2023/11/14 05:06:51;;;;;;;22.13;4.90;;;;;10.20;100078.00;;;;10333795;28;20223;-71
2023/11/14 05:11:52;;;;;;;27.03;5.67;;;;;10.20;100070.00;;;;10316341;28;20223;-71
2023/11/14 05:16:56;;;;;;;31.90;5.53;;;;;10.20;100065.00;;;;10277300;28;20216;-72
2023/11/14 05:21:58;;;;;;;35.83;5.63;;;;;10.20;100073.00;;;;10296458;28;20870;-71
2023/11/14 05:26:59;;;;;;;23.83;4.30;;;;;10.20;100048.00;;;;10309753;28;20223;-71
2023/11/14 05:32:01;;;;;;;37.93;5.37;;;;;10.30;100057.00;;;;10310922;28;20224;-72
2023/11/14 05:37:04;;;;;;;28.80;5.43;;;;;10.30;100062.00;;;;10309043;28;20231;-71
2023/11/14 05:42:05;;;;;;;30.23;5.60;;;;;10.40;100096.00;;;;10308339;28;20232;-71
2023/11/14 05:47:07;;;;;;;29.00;6.43;;;;;10.40;100070.00;;;;10313223;28;20220;-71
2023/11/14 05:52:10;;;;;;;29.50;4.93;;;;;10.50;100077.00;;;;10304891;28;20227;-71
2023/11/14 05:57:11;;;;;;;30.90;4.90;;;;;10.50;100082.00;;;;10330775;28;20219;-72
2023/11/14 06:02:12;;;;;;;25.93;5.13;;;;;10.50;100081.00;;;;10316926;28;20315;-72
2023/11/14 06:07:13;;;;;;;24.60;5.00;;;;;10.50;100066.00;;;;10314052;28;20230;-71
2023/11/14 06:12:14;;;;;;;23.10;4.80;;;;;10.50;100056.00;;;;10306650;28;20323;-72
2023/11/14 06:17:16;;;;;;;32.43;5.37;;;;;10.60;100063.00;;;;10304733;28;20278;-73
2023/11/14 06:22:17;;;;;;;27.73;5.53;;;;;10.60;100054.00;;;;10301332;28;20251;-73
2023/11/14 06:27:18;;;;;;;29.03;5.53;;;;;10.70;100062.00;;;;10307789;28;20278;-72
2023/11/14 06:32:19;;;;;;;18.70;4.33;;;;;10.70;100069.00;;;;10315533;28;20234;-73
2023/11/14 06:37:20;;;;;;;28.80;5.13;;;;;10.80;100106.00;;;;10313590;28;20232;-72
2023/11/14 06:42:25;;;;;;;25.57;4.67;;;;;10.80;100109.00;;;;10317993;28;20723;-73
2023/11/14 06:47:29;;;;;;;31.30;7.97;;;;;10.80;100088.00;;;;10326263;28;20271;-72
2023/11/14 06:52:30;;;;;;;31.03;6.23;;;;;10.80;100081.00;;;;10321066;28;20241;-72
2023/11/14 06:57:32;;;;;;;21.33;4.80;;;;;10.60;100067.00;;;;10313347;28;20827;-72
2023/11/14 07:02:33;;;;;;;19.87;4.57;;;;;10.50;100074.00;;;;10329487;28;20224;-73
2023/11/14 07:07:34;;;;;;;26.27;5.67;;;;;10.40;100078.00;;;;10319920;28;20222;-73
2023/11/14 07:12:35;;;;;;;31.17;5.40;;;;;10.40;100080.00;;;;10334102;28;20282;-73
2023/11/14 07:17:37;;;;;;;25.10;4.83;;;;;10.40;100070.00;;;;10316668;28;20323;-73
2023/11/14 07:22:40;;;;;;;33.73;5.40;;;;;10.40;100042.00;;;;10313251;28;20219;-73
2023/11/14 07:27:41;;;;;;;22.93;5.00;;;;;10.40;100061.00;;;;10327767;28;20228;-73
2023/11/14 07:32:42;;;;;;;27.90;5.40;;;;;10.60;100059.00;;;;10313381;28;20652;-73
2023/11/14 07:37:43;;;;;;;22.27;4.77;;;;;10.60;100067.00;;;;10332066;28;20232;-73
2023/11/14 07:42:44;;;;;;;22.50;4.20;;;;;10.70;100084.00;;;;10319944;28;20234;-73
2023/11/14 07:47:46;;;;;;;27.17;4.43;;;;;10.90;100098.00;;;;10312504;28;20235;-73
2023/11/14 07:52:47;;;;;;;28.07;5.10;;;;;10.90;100082.00;;;;10318436;28;20613;-72
2023/11/14 07:57:48;;;;;;;30.33;5.13;;;;;11.00;100081.00;;;;10314317;28;20231;-73
2023/11/14 08:02:49;;;;;;;25.97;5.57;;;;;11.10;100073.00;;;;10315073;28;20311;-73
2023/11/14 08:07:51;;;;;;;23.40;4.97;;;;;11.20;100080.00;;;;10310766;28;20228;-73
2023/11/14 08:12:52;;;;;;;20.60;4.83;;;;;11.30;100069.00;;;;10316872;28;20230;-73
2023/11/14 08:17:54;;;;;;;32.00;5.18;;;;;11.40;100067.00;;;;10302836;28;20315;-73
2023/11/14 08:22:55;;;;;;;32.22;5.55;;;;;11.50;100069.00;;;;10306611;28;21272;-73
2023/11/14 08:27:57;;;;;;;22.02;5.07;;;;;11.60;100081.00;;;;10310717;28;20216;-76
2023/11/14 08:32:59;;;;;;;24.10;5.15;;;;;11.50;100095.00;;;;10309135;28;20423;-76
2023/11/14 08:38:01;;;;;;;21.02;4.25;;;;;11.60;100078.00;;;;10317854;28;20587;-77
2023/11/14 08:43:17;;;;;;;32.00;6.00;;;;;11.70;100070.00;;;;10313270;28;20920;-76
2023/11/14 08:48:18;;;;;;;26.25;5.13;;;;;11.80;100056.00;;;;10310881;28;20884;-76
2023/11/14 08:53:21;;;;;;;24.65;5.68;;;;;11.80;100067.00;;;;10316908;28;20231;-77
2023/11/14 08:58:22;;;;;;;21.52;4.80;;;;;11.70;100085.00;;;;10310452;28;20278;-76
2023/11/14 09:03:23;;;;;;;25.63;4.88;;;;;11.60;100069.00;;;;10311713;28;20239;-76
2023/11/14 09:08:25;;;;;;;21.92;4.68;;;;;11.60;100094.00;;;;10317690;28;20244;-76
2023/11/14 09:13:26;;;;;;;24.70;5.20;;;;;11.60;100092.00;;;;10313589;28;20224;-76
2023/11/14 09:18:27;;;;;;;26.50;4.30;;;;;11.50;100108.00;;;;10316353;28;20262;-78
2023/11/14 09:23:28;;;;;;;17.60;4.35;;;;;11.30;100100.00;;;;10310673;28;20769;-77
2023/11/14 09:28:30;;;;;;;23.90;4.33;;;;;11.20;100125.00;;;;10311091;28;20559;-75
2023/11/14 09:33:40;;;;;;;22.70;3.87;;;;;11.00;100122.00;;;;10329671;28;20319;-72
2023/11/14 09:38:42;;;;;;;23.40;4.37;;;;;10.90;100121.00;;;;10317830;28;20750;-72
2023/11/14 09:43:43;;;;;;;12.07;2.40;;;;;10.90;100122.00;;;;10302021;28;20302;-71
2023/11/14 09:48:45;;;;;;;10.67;1.90;;;;;10.70;100098.00;;;;10316502;28;20284;-71
2023/11/14 09:53:47;;;;;;;12.53;5.90;;;;;10.50;100116.00;;;;10311290;28;20307;-71
2023/11/14 09:58:49;;;;;;;9.20;3.37;;;;;10.40;100103.00;;;;10302195;28;20227;-72
2023/11/14 10:03:50;;;;;;;7.37;2.30;;;;;10.30;100103.00;;;;10304293;28;20227;-71
2023/11/14 10:08:54;;;;;;;8.43;2.10;;;;;10.40;100124.00;;;;10288822;28;20228;-71
2023/11/14 10:14:04;;;;;;;13.93;3.27;;;;;10.50;100128.00;;;;10294475;28;20250;-71
2023/11/14 10:19:15;;;;;;;12.80;2.73;;;;;10.60;100103.00;;;;10306382;28;20636;-71
2023/11/14 10:24:17;;;;;;;9.87;2.60;;;;;10.70;100104.00;;;;10309587;28;20363;-71
2023/11/14 10:29:20;;;;;;;11.03;2.67;;;;;10.80;100080.00;;;;10307155;28;20220;-72
2023/11/14 10:34:27;;;;;;;8.83;2.10;;;;;10.80;100093.00;;;;10308786;28;21097;-72
2023/11/14 10:39:29;;;;;;;10.97;2.90;;;;;10.90;100083.00;;;;10308039;28;20236;-72
2023/11/14 10:44:30;;;;;;;15.00;3.17;;;;;10.80;100078.00;;;;10306854;28;20755;-72
2023/11/14 10:49:45;;;;;;;9.47;2.00;;;;;10.80;100078.00;;;;10317080;28;20224;-72
2023/11/14 10:54:48;;;;;;;11.83;2.20;;;;;10.80;100060.00;;;;10308512;28;20224;-72
2023/11/14 10:59:50;;;;;;;15.90;3.87;;;;;11.00;100049.00;;;;10310444;28;20224;-72
2023/11/14 11:04:52;;;;;;;14.40;4.27;;;;;11.00;100052.00;;;;10308367;28;20224;-72
2023/11/14 11:09:53;;;;;;;15.23;3.97;;;;;11.30;100023.00;;;;10303306;28;20227;-72
2023/11/14 11:14:56;;;;;;;24.90;5.53;;;;;11.40;100031.00;;;;10309383;28;20239;-72
2023/11/14 11:19:57;;;;;;;22.60;4.77;;;;;11.60;100021.00;;;;10329947;28;20246;-72
2023/11/14 11:25:29;;;;;;;30.88;5.82;;;;;11.60;100010.00;;;;10286189;28;20307;-73
2023/11/14 11:30:30;;;;;;;30.38;6.00;;;;;11.70;99991.00;;;;10304100;28;20913;-72
2023/11/14 11:35:34;;;;;;;32.00;4.87;;;;;11.80;99976.00;;;;10284142;28;20274;-72
2023/11/14 11:40:55;;;;;;;24.17;5.27;;;;;12.00;99965.00;;;;10304404;28;20874;-73
2023/11/14 11:45:56;;;;;;;27.70;4.72;;;;;12.10;99978.00;;;;10311279;28;20315;-73
2023/11/14 11:51:19;;;;;;;18.95;4.15;;;;;12.00;99968.00;;;;10288917;28;20223;-73
2023/11/14 11:56:39;;;;;;;17.48;3.72;;;;;11.70;99961.00;;;;10306370;28;20330;-71
2023/11/14 12:01:48;;;;;;;19.67;4.75;;;;;11.50;99950.00;;;;10318787;28;20232;-71
2023/11/14 12:06:49;;;;;;;21.30;4.23;;;;;11.50;99955.00;;;;10319692;28;20962;-71
2023/11/14 12:11:52;;;;;;;19.95;4.53;;;;;11.50;99947.00;;;;10311326;28;20238;-71
2023/11/14 12:16:53;;;;;;;18.55;4.22;;;;;11.50;99928.00;;;;10314643;28;20230;-70
2023/11/14 12:21:54;;;;;;;13.93;3.05;;;;;11.40;99924.00;;;;10309829;28;20270;-72
2023/11/14 12:26:56;;;;;;;14.57;2.77;;;;;11.30;99907.00;;;;10313220;28;20559;-71
2023/11/14 12:31:59;;;;;;;15.63;2.55;;;;;11.10;99904.00;;;;10304642;28;20243;-73
2023/11/14 12:37:16;;;;;;;11.57;2.47;;;;;10.90;99900.00;;;;10329814;28;20762;-72
2023/11/14 12:42:22;;;;;;;8.47;2.50;;;;;10.80;99894.00;;;;10316683;28;20227;-73
2023/11/14 12:47:23;;;;;;;7.10;1.70;;;;;10.50;99884.00;;;;10302828;28;21302;-72
2023/11/14 12:52:24;;;;;;;9.30;2.40;;;;;10.30;99880.00;;;;10303955;28;20212;-71
2023/11/14 12:57:26;;;;;;;8.30;2.33;;;;;10.20;99873.00;;;;10307911;28;20216;-72
2023/11/14 13:02:27;;;;;;;7.23;2.30;;;;;10.20;99873.00;;;;10323984;28;20311;-71
2023/11/14 13:07:28;;;;;;;5.60;1.77;;;;;10.20;99854.00;;;;10326382;28;20307;-73
2023/11/14 13:12:30;;;;;;;4.77;2.00;;;;;10.40;99852.00;;;;10314230;28;20232;-73
2023/11/14 13:17:31;;;;;;;9.67;2.70;;;;;10.40;99849.00;;;;10321004;28;20230;-72
2023/11/14 13:22:33;;;;;;;12.10;2.73;;;;;10.40;99842.00;;;;10336797;28;20224;-73
2023/11/14 13:27:37;;;;;;;5.40;2.20;;;;;10.50;99832.00;;;;10312481;28;20338;-72
2023/11/14 13:32:38;;;;;;;11.07;2.70;;;;;10.50;99824.00;;;;10292244;28;20308;-72
2023/11/14 13:37:40;;;;;;;13.40;4.03;;;;;10.60;99799.00;;;;10326569;28;20235;-72
2023/11/14 13:42:44;;;;;;;17.17;4.50;;;;;10.90;99782.00;;;;10304991;28;20687;-72
2023/11/14 13:47:45;;;;;;;14.20;3.73;;;;;11.20;99783.00;;;;10306602;28;20299;-72
2023/11/14 13:52:47;;;;;;;21.93;4.50;;;;;11.30;99767.00;;;;10322390;28;20905;-72
2023/11/14 13:57:48;;;;;;;15.77;4.07;;;;;11.40;99761.00;;;;10317788;28;20224;-73
2023/11/14 14:02:50;;;;;;;17.70;5.07;;;;;11.40;99746.00;;;;10313209;28;20219;-73
2023/11/14 14:07:51;;;;;;;16.90;3.87;;;;;11.40;99750.00;;;;10305946;28;20298;-72
2023/11/14 14:12:53;;;;;;;18.80;3.33;;;;;11.30;99728.00;;;;10309307;28;20276;-73
2023/11/14 14:17:55;;;;;;;15.47;3.83;;;;;11.30;99710.00;;;;10305585;28;20303;-72
2023/11/14 14:22:57;;;;;;;13.13;3.73;;;;;11.20;99689.00;;;;10324388;28;20223;-72
2023/11/14 14:27:58;;;;;;;10.77;2.60;;;;;11.20;99678.00;;;;10304817;28;20682;-72
2023/11/14 14:32:59;;;;;;;15.53;3.50;;;;;11.20;99676.00;;;;10279930;28;20585;-72
2023/11/14 14:38:00;;;;;;;15.07;4.57;;;;;11.10;99663.00;;;;10301258;28;20286;-72
2023/11/14 14:43:02;;;;;;;18.07;4.63;;;;;11.10;99641.00;;;;10293347;28;20232;-73
2023/11/14 14:48:04;;;;;;;15.17;3.60;;;;;11.10;99639.00;;;;10301104;28;20282;-73
2023/11/14 14:53:06;;;;;;;13.07;3.63;;;;;11.00;99622.00;;;;10285298;28;20845;-73
2023/11/14 14:58:09;;;;;;;11.17;2.87;;;;;11.00;99628.00;;;;10314773;28;20227;-73
2023/11/14 15:03:18;;;;;;;11.53;2.77;;;;;10.90;99616.00;;;;10326903;28;20224;-73
2023/11/14 15:08:22;;;;;;;10.43;2.60;;;;;10.90;99608.00;;;;10315602;28;20809;-73
2023/11/14 15:13:24;;;;;;;6.43;2.57;;;;;10.90;99596.00;;;;10326204;28;20880;-73
2023/11/14 15:18:25;;;;;;;10.13;2.37;;;;;10.80;99590.00;;;;10311916;28;20590;-72
2023/11/14 15:23:26;;;;;;;10.40;2.67;;;;;10.80;99578.00;;;;10313280;28;20832;-72
2023/11/14 15:28:28;;;;;;;7.07;2.33;;;;;10.70;99567.00;;;;10310501;28;20220;-72
2023/11/14 15:33:29;;;;;;;3.97;2.30;;;;;10.70;99552.00;;;;10308768;28;20302;-72
2023/11/14 15:38:31;;;;;;;8.07;2.83;;;;;10.60;99538.00;;;;10310972;28;20749;-72
2023/11/14 15:43:33;;;;;;;8.50;2.70;;;;;10.60;99534.00;;;;10318732;28;20227;-71
2023/11/14 15:48:35;;;;;;;3.17;1.50;;;;;10.60;99515.00;;;;10315422;28;20958;-72
2023/11/14 15:53:36;;;;;;;6.30;2.27;;;;;10.60;99520.00;;;;10315380;28;20633;-73
2023/11/14 15:58:38;;;;;;;6.90;2.00;;;;;10.60;99506.00;;;;10294902;28;20231;-72
2023/11/14 16:03:39;;;;;;;6.23;2.57;;;;;10.60;99494.00;;;;10308280;28;20711;-72
2023/11/14 16:08:41;;;;;;;2.80;1.67;;;;;10.60;99505.00;;;;10311589;28;20216;-72
2023/11/14 16:13:43;;;;;;;5.53;2.10;;;;;10.70;99473.00;;;;10293459;28;20295;-72
2023/11/14 16:18:44;;;;;;;5.87;2.00;;;;;10.60;99496.00;;;;10312472;28;20813;-72
2023/11/14 16:23:45;;;;;;;5.73;2.13;;;;;10.60;99516.00;;;;10309268;28;20653;-72
2023/11/14 16:28:46;;;;;;;7.10;2.30;;;;;10.60;99542.00;;;;10291117;28;20697;-71
2023/11/14 16:33:47;;;;;;;5.73;2.83;;;;;10.60;99565.00;;;;10304567;28;20223;-72
2023/11/14 16:38:48;;;;;;;5.13;1.33;;;;;10.50;99583.00;;;;10306262;28;20259;-72
2023/11/14 16:43:49;;;;;;;3.60;0.87;;;;;10.20;99595.00;;;;10309509;28;20220;-73
2023/11/14 16:48:51;;;;;;;1.33;0.80;;;;;9.90;99612.00;;;;10314943;28;20224;-73
2023/11/14 16:53:52;;;;;;;4.00;0.57;;;;;9.70;99620.00;;;;10303703;28;20303;-73
2023/11/14 16:58:53;;;;;;;1.50;0.70;;;;;9.60;99623.00;;;;10311196;28;20840;-73
2023/11/14 17:03:57;;;;;;;1.07;0.90;;;;;9.60;99647.00;;;;10292705;28;20315;-73
2023/11/14 17:08:58;;;;;;;3.03;0.70;;;;;9.60;99653.00;;;;10278254;28;20618;-73
2023/11/14 17:13:59;;;;;;;2.80;1.73;;;;;9.60;99664.00;;;;10287176;28;20243;-73
2023/11/14 17:19:04;;;;;;;3.83;1.80;;;;;9.60;99676.00;;;;10288340;28;20303;-73
2023/11/14 17:24:05;;;;;;;4.50;1.80;;;;;9.60;99696.00;;;;10307126;28;20255;-73
2023/11/14 17:29:07;;;;;;;4.17;2.37;;;;;9.70;99704.00;;;;10317328;28;20219;-73
2023/11/14 17:34:09;;;;;;;4.73;2.00;;;;;9.70;99716.00;;;;10306633;28;20228;-73
2023/11/14 17:39:13;;;;;;;6.10;3.50;;;;;9.60;99732.00;;;;10305399;28;20232;-72
2023/11/14 17:44:17;;;;;;;3.83;1.43;;;;;9.60;99756.00;;;;10300513;28;20589;-75
2023/11/14 17:49:18;;;;;;;2.67;1.30;;;;;9.60;99767.00;;;;10320023;28;20901;-74
2023/11/14 17:54:19;;;;;;;8.70;1.83;;;;;9.60;99778.00;;;;10290138;28;20326;-75
2023/11/14 17:59:21;;;;;;;6.70;1.70;;;;;9.50;99798.00;;;;10311861;28;20299;-74
2023/11/14 18:04:24;;;;;;;3.60;1.30;;;;;9.50;99803.00;;;;10309436;28;20287;-74
2023/11/14 18:09:28;;;;;;;6.03;1.93;;;;;9.50;99813.00;;;;10306745;28;20238;-74
2023/11/14 18:14:30;;;;;;;6.40;2.37;;;;;9.50;99836.00;;;;10299382;28;21073;-74
2023/11/14 18:19:31;;;;;;;6.67;3.23;;;;;9.50;99845.00;;;;10294106;28;20231;-74
2023/11/14 18:24:32;;;;;;;11.07;5.30;;;;;9.50;99863.00;;;;10293412;28;20233;-74
2023/11/14 18:29:33;;;;;;;6.67;2.27;;;;;9.40;99872.00;;;;10325649;28;20307;-74
2023/11/14 18:34:37;;;;;;;9.07;3.13;;;;;9.40;99886.00;;;;10315844;28;20223;-75
2023/11/14 18:39:38;;;;;;;10.43;2.83;;;;;9.40;99896.00;;;;10293930;28;20370;-74
2023/11/14 18:44:39;;;;;;;3.93;1.80;;;;;9.40;99915.00;;;;10323125;28;20307;-74
2023/11/14 18:49:53;;;;;;;6.30;2.37;;;;;9.40;99918.00;;;;10316274;28;20228;-75
2023/11/14 18:54:56;;;;;;;6.30;2.00;;;;;9.30;99931.00;;;;10294227;28;20335;-75
2023/11/14 18:59:57;;;;;;;5.90;1.53;;;;;9.20;99931.00;;;;10309439;28;20583;-74
2023/11/14 19:04:59;;;;;;;6.97;2.00;;;;;9.20;99946.00;;;;10301090;28;20224;-73
2023/11/14 19:10:00;;;;;;;11.43;2.30;;;;;9.20;99971.00;;;;10335382;28;20224;-74
2023/11/14 19:15:02;;;;;;;9.77;1.50;;;;;9.20;99972.00;;;;10317089;28;20223;-74
2023/11/14 19:20:05;;;;;;;5.73;1.70;;;;;9.30;99980.00;;;;10298995;28;20212;-73
2023/11/14 19:25:09;;;;;;;11.70;2.77;;;;;9.30;99986.00;;;;10318181;28;20228;-74
2023/11/14 19:30:10;;;;;;;14.30;3.27;;;;;9.40;99998.00;;;;10322800;28;20227;-76
2023/11/14 19:35:14;;;;;;;11.00;3.87;;;;;9.40;100013.00;;;;10314549;28;20224;-74
2023/11/14 19:40:15;;;;;;;11.40;3.90;;;;;9.40;100015.00;;;;10295449;28;20323;-73
2023/11/14 19:45:16;;;;;;;10.60;4.07;;;;;9.40;100025.00;;;;10318822;28;20887;-73
2023/11/14 19:50:19;;;;;;;14.33;4.03;;;;;9.40;100041.00;;;;10312870;28;20369;-74
2023/11/14 19:55:20;;;;;;;15.27;4.77;;;;;9.40;100051.00;;;;10318159;28;20279;-74
2023/11/14 20:00:22;;;;;;;15.97;5.33;;;;;9.50;100077.00;;;;10326138;28;20283;-74
2023/11/14 20:05:23;;;;;;;10.93;5.77;;;;;9.40;100084.00;;;;10337535;28;20224;-73
2023/11/14 20:10:24;;;;;;;16.77;7.00;;;;;9.50;100091.00;;;;10323318;28;20261;-74
2023/11/14 20:15:25;;;;;;;11.77;5.03;;;;;9.50;100100.00;;;;10330892;28;20227;-75
2023/11/14 20:20:27;;;;;;;10.27;5.47;;;;;9.50;100105.00;;;;10311552;28;20228;-75
2023/11/14 20:25:29;;;;;;;10.63;4.60;;;;;9.50;100114.00;;;;10311962;28;20232;-74
2023/11/14 20:30:31;;;;;;;10.10;4.50;;;;;9.50;100128.00;;;;10310897;28;20260;-74
2023/11/14 20:35:33;;;;;;;12.17;4.17;;;;;9.50;100139.00;;;;10327285;28;20235;-74
2023/11/14 20:40:34;;;;;;;15.57;5.33;;;;;9.50;100141.00;;;;10298364;28;20248;-74
2023/11/14 20:45:35;;;;;;;11.53;4.03;;;;;9.60;100144.00;;;;10312466;28;20243;-74
2023/11/14 20:50:37;;;;;;;10.60;4.40;;;;;9.60;100160.00;;;;10310453;28;20327;-74
2023/11/14 20:55:38;;;;;;;9.50;3.93;;;;;9.60;100166.00;;;;10323798;28;20227;-74
2023/11/14 21:00:40;;;;;;;8.93;3.70;;;;;9.60;100182.00;;;;10328185;28;20239;-74
2023/11/14 21:05:41;;;;;;;11.10;4.00;;;;;9.60;100192.00;;;;10323143;28;20227;-74
2023/11/14 21:10:42;;;;;;;16.13;4.23;;;;;9.70;100214.00;;;;10318913;28;20731;-74
2023/11/14 21:15:43;;;;;;;14.47;3.67;;;;;9.70;100209.00;;;;10308745;28;20585;-74
2023/11/14 21:20:45;;;;;;;16.00;4.57;;;;;9.70;100227.00;;;;10293431;28;20230;-74
2023/11/14 21:25:46;;;;;;;10.93;3.80;;;;;9.60;100249.00;;;;10303047;28;20374;-74
2023/11/14 21:30:52;;;;;;;22.77;4.43;;;;;9.60;100242.00;;;;10318507;28;20220;-74
2023/11/14 21:35:54;;;;;;;16.63;4.03;;;;;9.60;100264.00;;;;10312414;28;20227;-73
2023/11/14 21:40:55;;;;;;;8.80;3.90;;;;;9.50;100275.00;;;;10310555;28;20739;-73
2023/11/14 21:45:56;;;;;;;12.90;4.40;;;;;9.50;100287.00;;;;10303597;28;20231;-74
2023/11/14 21:50:57;;;;;;;11.33;4.00;;;;;9.50;100290.00;;;;10312861;28;20314;-73
2023/11/14 21:55:58;;;;;;;12.00;4.40;;;;;9.50;100309.00;;;;10301643;28;20220;-73
2023/11/14 22:00:59;;;;;;;16.63;4.70;;;;;9.50;100303.00;;;;10320289;28;20250;-74
2023/11/14 22:06:01;;;;;;;21.23;4.50;;;;;9.50;100314.00;;;;10312672;28;20334;-74
2023/11/14 22:11:02;;;;;;;19.80;4.67;;;;;9.50;100318.00;;;;10315369;28;20219;-74
2023/11/14 22:16:04;;;;;;;12.90;4.30;;;;;9.50;100343.00;;;;10324134;28;20227;-74
2023/11/14 22:21:05;;;;;;;13.77;3.77;;;;;9.60;100352.00;;;;10338359;28;20255;-73
2023/11/14 22:26:07;;;;;;;16.77;4.80;;;;;9.60;100360.00;;;;10314762;28;20766;-73
2023/11/14 22:31:08;;;;;;;16.90;5.33;;;;;9.70;100367.00;;;;10316240;28;20255;-74
2023/11/14 22:36:09;;;;;;;17.47;4.30;;;;;9.70;100374.00;;;;10318745;28;20795;-76
2023/11/14 22:41:14;;;;;;;18.20;4.37;;;;;9.70;100387.00;;;;10318392;28;20328;-76
2023/11/14 22:46:21;;;;;;;11.50;4.17;;;;;9.70;100395.00;;;;10329310;28;20238;-76
2023/11/14 22:51:23;;;;;;;15.23;4.67;;;;;9.80;100405.00;;;;10279510;28;20837;-76
2023/11/14 22:56:24;;;;;;;11.33;4.90;;;;;9.80;100404.00;;;;10299639;28;20307;-76
2023/11/14 23:01:34;;;;;;;17.47;4.77;;;;;9.90;100421.00;;;;10313015;28;20597;-77
2023/11/14 23:06:39;;;;;;;19.90;4.93;;;;;9.90;100424.00;;;;10289693;28;20298;-76
2023/11/14 23:11:43;;;;;;;15.63;4.90;;;;;9.90;100434.00;;;;10328878;28;20235;-76
2023/11/14 23:16:45;;;;;;;14.53;4.20;;;;;9.90;100440.00;;;;10314692;28;20232;-76
2023/11/14 23:21:46;;;;;;;12.83;4.33;;;;;10.00;100449.00;;;;10310510;28;20933;-76
2023/11/14 23:26:58;;;;;;;15.90;3.77;;;;;10.00;100452.00;;;;10321314;28;20942;-76
2023/11/14 23:31:59;;;;;;;15.00;3.83;;;;;9.90;100452.00;;;;10314679;28;20220;-76
2023/11/14 23:37:01;;;;;;;12.87;3.80;;;;;9.90;100469.00;;;;10322574;28;20244;-76
2023/11/14 23:42:02;;;;;;;20.50;4.03;;;;;9.90;100474.00;;;;10339133;28;20303;-75
2023/11/14 23:47:03;;;;;;;14.23;3.30;;;;;9.80;100476.00;;;;10318322;28;20902;-73
2023/11/14 23:52:06;;;;;;;15.23;4.03;;;;;9.80;100485.00;;;;10305765;28;20231;-73
2023/11/14 23:57:07;;;;;;;24.57;4.00;;;;;9.80;100495.00;;;;10317159;28;20839;-74
